Okanogan, WA

7:25 AM PDT on July 11, 2014 (GMT -0700)
Omak (KOMK) Elev 1302 ft | 48.46 °N, 119.52 °W | Change Station

Current weather conditions updated 32 minutes ago

Clear
Clear
70 °F
Feels Like 70 °F
N
13
Wind Variable Wind from NNW

Today is forecast to be Warmer than yesterday.

Today
High -- | Low -- °F
--% Chance of Precip.
Yesterday
High -- | Low -- °F
Precip. -- in
5:09 AM 8:58 PM
Waxing Gibbous, 99% visible
Pressure 29.94 in
Visibility 10.0 miles
Clouds Clear
Dew Point 37 °F
Humidity 30%
Rainfall 0.00 in
Snow Depth Not available.
UV 1 out of 12
Pollen 5.60 out of 12
Air Quality Not available.
Flu Activity Sporadic
METAR KOMK 111353Z AUTO 34011KT 10SM CLR 21/03 A2997 RMK AO2 SLP138 T02110028

More Conditions Fewer Conditions

Pressure 29.94 in
Visibility 10.0 miles
Clouds Clear
Dew Point 37 °F
Humidity 30%
Rainfall 0.00 in
Snow Depth Not available.
UV 1 out of 12
Pollen 5.60 out of 12
Air Quality Not available.
Flu Activity Sporadic
METAR KOMK 111353Z AUTO 34011KT 10SM CLR 21/03 A2997 RMK AO2 SLP138 T02110028

More Conditions Fewer Conditions

10-Day Weather Forecast

Almanac

Astronomy

Jul. 11, 2014 Rise Set
Actual Time 5:09 AM PDT 8:58 PM PDT
Civil Twilight 4:28 AM PDT 9:38 PM PDT
Nautical Twilight 3:33 AM PDT 10:33 PM PDT
Astronomical Twilight 2:10 AM PDT 11:55 PM PDT
Moon 8:05 PM PDT 4:32 AM PDT
Length of Visible Light 17h 09m
Length of Day
15h 48m
Tomorrow will be 1m 40s shorter.
Waxing Gibbous, 99% of the Moon is Illuminated
Today
Waxing Gibbous
Jul 12
Full
Jul 18
Last Quarter
Jul 26
New
Aug 3
First Quarter

Today's Extremes

State Highs State Lows

Community

WunderPhotos

Upload Photos

1,732,483 photos uploaded!

Nearby

Snow Depth

Station Depth Elevation
Moses Mountain 1 in 5300 ft
Rainy Pass 0 in 4780 ft
Harts Pass 0 in 6500 ft
Swamp Creek 0 in 4000 ft
Sentinel Butte 1 in 4920 ft

Earthquake Activity

City Distance Mag. Time & Date
No recent earthquake activity has been reported nearby.
Minimum magnitude displayed is 2.5.

Coastal Water Temperatures

Place Temperature
No Stations Reporting

Nearby Weather Stations

Station Location Temp. Heat Index Dew Point Humidity Wind Precip. Elev Updated Type
Silver Spur Resort, Brewster, WA 75.4 °F 77 °F 38 °F 26% NNE  at  7.0 mph 0.00 in / hr 1476 ft 7:25 AM PDT Normal
South Twisp, Twisp, WA 66.0 °F - 50 °F 55% ENE  at  0.0 mph 0.00 in / hr 1608 ft 7:25 AM PDT Rapid Fire
RAWS KRAMER WA, Okanogan, WA 68 °F - 35 °F 29% NNW  at  16 mph 0.00 in / hr 2720 ft 6:08 AM PDT MADIS
RAWS PEONY WA, Tonasket, WA 52 °F - 41 °F 67% North  at  0 mph 0.00 in / hr 3804 ft 6:06 AM PDT MADIS
RAWS LEECHER WA, Carlton, WA 58 °F - 42 °F 55% North  at  6 mph 0.00 in / hr 4991 ft 6:25 AM PDT MADIS

Show More Stations Show Fewer Stations